createdAt,value
2023-03-25T00:02:22.399Z,10.50
2023-03-25T00:05:28.590Z,10.00
2023-03-25T00:08:32.371Z,7.00
2023-03-25T00:11:35.853Z,13.50
2023-03-25T00:14:39.556Z,9.20
2023-03-25T00:17:44.219Z,12.00
2023-03-25T00:20:51.088Z,8.00
2023-03-25T00:23:54.496Z,10.50
2023-03-25T00:26:57.721Z,9.40
2023-03-25T00:30:00.960Z,9.00
2023-03-25T00:33:04.209Z,8.00
2023-03-25T00:36:11.555Z,10.80
2023-03-25T00:39:14.812Z,10.00
2023-03-25T00:42:26.154Z,8.00
2023-03-25T00:45:29.828Z,9.00
2023-03-25T00:48:33.087Z,8.00
2023-03-25T00:51:53.197Z,11.00
2023-03-25T00:54:57.627Z,10.00
2023-03-25T00:58:00.824Z,10.00
2023-03-25T01:01:10.926Z,8.20
2023-03-25T01:04:14.280Z,9.00
2023-03-25T01:07:20.429Z,10.00
2023-03-25T01:10:24.142Z,10.00
2023-03-25T01:13:27.815Z,10.60
2023-03-25T01:16:31.436Z,10.00
2023-03-25T01:19:35.169Z,10.80
2023-03-25T01:22:39.792Z,8.60
2023-03-25T01:25:44.631Z,9.00
2023-03-25T01:28:48.490Z,10.00
2023-03-25T01:31:53.632Z,10.00
2023-03-25T01:34:56.806Z,12.00
2023-03-25T01:38:01.750Z,9.80
2023-03-25T01:41:06.733Z,10.00
2023-03-25T01:44:31.998Z,10.00
2023-03-25T01:47:35.247Z,11.00
2023-03-25T01:50:41.813Z,11.00
2023-03-25T01:53:46.910Z,9.20
2023-03-25T01:56:52.434Z,11.75
2023-03-25T01:59:56.534Z,11.60
2023-03-25T02:03:01.146Z,10.75
2023-03-25T02:06:08.836Z,13.00
2023-03-25T02:09:16.238Z,11.50
2023-03-25T02:12:19.538Z,13.60
2023-03-25T02:15:23.362Z,14.00
2023-03-25T02:18:43.878Z,14.00
2023-03-25T02:22:25.832Z,14.00
2023-03-25T02:25:52.479Z,14.00
2023-03-25T02:29:03.171Z,14.60
2023-03-25T02:32:20.567Z,15.00
2023-03-25T02:35:40.358Z,15.40
2023-03-25T02:38:51.730Z,15.00
2023-03-25T02:42:01.506Z,15.00
2023-03-25T02:45:09.665Z,15.50
2023-03-25T02:48:19.226Z,14.00
2023-03-25T02:51:28.631Z,16.00
2023-03-25T02:54:37.063Z,15.00
2023-03-25T02:57:44.073Z,14.00
2023-03-25T03:00:49.385Z,13.50
2023-03-25T03:03:53.040Z,15.00
2023-03-25T03:06:57.986Z,16.00
2023-03-25T03:10:18.128Z,17.00
2023-03-25T03:13:32.741Z,15.00
2023-03-25T03:16:50.203Z,15.00
2023-03-25T03:19:57.826Z,14.00
2023-03-25T03:23:11.057Z,12.50
2023-03-25T03:26:26.462Z,12.40
2023-03-25T03:29:35.892Z,13.40
2023-03-25T03:32:45.998Z,12.00
2023-03-25T03:35:57.609Z,12.20
2023-03-25T03:39:07.390Z,12.60
2023-03-25T03:42:22.054Z,11.80
2023-03-25T03:45:32.108Z,10.60
2023-03-25T03:48:40.427Z,12.00
2023-03-25T03:51:51.635Z,12.00
2023-03-25T03:54:59.620Z,8.00
2023-03-25T03:58:10.592Z,12.00
2023-03-25T04:01:20.130Z,12.80
2023-03-25T04:04:27.223Z,12.00
2023-03-25T04:07:39.178Z,10.00
2023-03-25T04:10:52.699Z,11.00
2023-03-25T04:14:01.506Z,11.00
2023-03-25T04:17:06.477Z,13.00
2023-03-25T04:20:13.140Z,9.00
2023-03-25T04:23:16.729Z,10.40
2023-03-25T04:26:20.718Z,8.50
2023-03-25T04:29:25.713Z,7.00
2023-03-25T04:32:29.005Z,7.00
2023-03-25T04:35:34.202Z,6.00
2023-03-25T04:38:37.870Z,7.60
2023-03-25T04:41:41.176Z,4.60
2023-03-25T04:44:45.778Z,5.60
2023-03-25T04:47:54.140Z,6.00
2023-03-25T04:50:57.990Z,5.00
2023-03-25T04:54:01.302Z,5.00
2023-03-25T04:57:04.745Z,6.60
2023-03-25T05:00:12.073Z,6.00
2023-03-25T05:03:16.056Z,6.00
2023-03-25T05:06:19.528Z,6.40
2023-03-25T05:09:23.168Z,5.75
2023-03-25T05:12:26.758Z,5.00
2023-03-25T05:15:32.754Z,6.00
2023-03-25T05:18:36.078Z,5.00
2023-03-25T05:21:42.464Z,6.00
2023-03-25T05:24:45.766Z,5.20
2023-03-25T05:27:49.434Z,4.60
2023-03-25T05:30:54.248Z,6.00
2023-03-25T05:33:57.833Z,8.00
2023-03-25T05:37:01.107Z,8.50
2023-03-25T05:40:15.100Z,8.00
2023-03-25T05:43:22.841Z,7.00
2023-03-25T05:46:29.645Z,5.00
2023-03-25T05:49:33.081Z,7.50
2023-03-25T05:52:36.766Z,8.00
2023-03-25T05:55:40.433Z,7.00
2023-03-25T05:58:43.628Z,6.00
2023-03-25T06:01:50.179Z,8.60
2023-03-25T06:04:53.710Z,9.00
2023-03-25T06:07:57.555Z,9.00
2023-03-25T06:11:00.859Z,9.00
2023-03-25T06:14:04.100Z,6.50
2023-03-25T06:17:08.682Z,8.00
2023-03-25T06:20:16.926Z,9.00
2023-03-25T06:23:20.492Z,11.00
2023-03-25T06:26:25.129Z,11.00
2023-03-25T06:29:28.420Z,9.00
2023-03-25T06:32:33.332Z,9.00
2023-03-25T06:35:36.656Z,9.00
2023-03-25T06:38:40.859Z,8.50
2023-03-25T06:41:47.058Z,6.00
2023-03-25T06:45:16.687Z,9.00
2023-03-25T06:48:42.716Z,9.75
2023-03-25T06:51:46.226Z,8.75
2023-03-25T06:54:49.901Z,8.50
2023-03-25T06:57:56.808Z,8.00
2023-03-25T07:01:03.826Z,7.00
2023-03-25T07:04:08.482Z,7.80
2023-03-25T07:07:11.724Z,7.60
2023-03-25T07:10:15.636Z,9.00
2023-03-25T07:13:18.861Z,10.00
2023-03-25T07:16:22.546Z,7.75
2023-03-25T07:19:27.433Z,8.40
2023-03-25T07:22:31.052Z,8.00
2023-03-25T07:25:34.257Z,7.00
2023-03-25T07:28:38.796Z,8.00
2023-03-25T07:31:42.114Z,9.00
2023-03-25T07:34:47.242Z,8.60
2023-03-25T07:37:50.461Z,9.00
2023-03-25T07:40:53.734Z,8.50
2023-03-25T07:43:57.248Z,9.67
2023-03-25T07:47:07.328Z,7.00
2023-03-25T07:50:12.737Z,8.80
2023-03-25T07:53:15.944Z,7.80
2023-03-25T07:56:19.403Z,9.00
2023-03-25T07:59:22.636Z,9.60
2023-03-25T08:02:26.040Z,9.00
2023-03-25T08:05:31.515Z,11.00
2023-03-25T08:08:35.094Z,10.00
2023-03-25T08:11:38.304Z,10.40
2023-03-25T08:14:41.682Z,8.80
2023-03-25T08:17:45.022Z,11.40
2023-03-25T08:20:50.764Z,12.60
2023-03-25T08:23:58.955Z,12.00
2023-03-25T08:27:15.297Z,11.00
2023-03-25T08:30:20.192Z,12.00
2023-03-25T08:33:27.487Z,9.00
2023-03-25T08:36:33.186Z,11.00
2023-03-25T08:39:40.077Z,10.60
2023-03-25T08:42:43.566Z,7.80
2023-03-25T08:45:46.854Z,7.20
2023-03-25T08:48:50.441Z,7.60
2023-03-25T08:51:57.640Z,9.00
2023-03-25T08:55:01.030Z,8.00
2023-03-25T08:58:05.099Z,7.00
2023-03-25T09:01:09.253Z,6.00
2023-03-25T09:04:13.028Z,8.00
2023-03-25T09:07:19.844Z,5.00
2023-03-25T09:10:23.487Z,4.00
2023-03-25T09:13:27.044Z,5.50
2023-03-25T09:16:30.379Z,5.40
2023-03-25T09:19:35.335Z,5.00
2023-03-25T09:22:40.314Z,4.20
2023-03-25T09:25:44.332Z,3.50
2023-03-25T09:28:48.108Z,5.00
2023-03-25T09:31:51.364Z,3.00
2023-03-25T09:34:54.657Z,3.50
2023-03-25T09:37:59.321Z,3.00
2023-03-25T09:41:06.941Z,2.25
2023-03-25T09:44:17.579Z,3.00
2023-03-25T09:47:23.247Z,3.00
2023-03-25T09:50:27.971Z,4.00
2023-03-25T09:53:39.018Z,4.00
2023-03-25T09:56:44.805Z,2.25
2023-03-25T09:59:50.215Z,2.25
2023-03-25T10:03:04.664Z,3.25
2023-03-25T10:06:19.180Z,4.00
2023-03-25T10:09:38.857Z,5.00
2023-03-25T10:12:48.523Z,2.00
2023-03-25T10:15:57.985Z,4.00
2023-03-25T10:19:17.229Z,3.00
2023-03-25T10:22:27.721Z,4.20
2023-03-25T10:25:38.354Z,4.00
2023-03-25T10:28:50.672Z,5.40
2023-03-25T10:31:55.833Z,7.00
2023-03-25T10:35:01.596Z,3.60
2023-03-25T10:38:14.649Z,5.00
2023-03-25T10:41:26.162Z,3.40
2023-03-25T10:44:30.603Z,3.00
2023-03-25T10:47:38.889Z,4.60
2023-03-25T10:50:43.902Z,4.00
2023-03-25T10:53:50.382Z,4.40
2023-03-25T10:56:59.379Z,4.00
2023-03-25T11:00:12.908Z,5.00
2023-03-25T11:03:21.362Z,2.00
2023-03-25T11:06:29.733Z,3.40
2023-03-25T11:09:36.775Z,5.00
2023-03-25T11:12:45.294Z,4.00
2023-03-25T11:15:50.003Z,2.00
2023-03-25T11:18:54.919Z,3.00
2023-03-25T11:22:02.047Z,4.00
2023-03-25T11:25:08.696Z,4.00
2023-03-25T11:28:21.536Z,4.00
2023-03-25T11:31:27.453Z,5.25
2023-03-25T11:34:31.219Z,5.80
2023-03-25T11:37:45.571Z,4.00
2023-03-25T11:40:54.984Z,4.00
2023-03-25T11:44:00.049Z,4.00
2023-03-25T11:47:05.633Z,4.00
2023-03-25T11:50:20.041Z,3.00
2023-03-25T11:53:27.279Z,3.00
2023-03-25T11:56:36.028Z,2.00
2023-03-25T11:59:45.820Z,3.00
2023-03-25T12:02:49.287Z,2.00
2023-03-25T12:06:01.415Z,4.00
2023-03-25T12:09:11.823Z,2.00
2023-03-25T12:12:32.617Z,3.00
2023-03-25T12:15:42.688Z,3.00
2023-03-25T12:18:55.209Z,4.00
2023-03-25T12:22:12.139Z,3.00
2023-03-25T12:25:27.504Z,5.00
2023-03-25T12:28:52.820Z,4.00
2023-03-25T12:32:12.288Z,4.00
2023-03-25T12:35:35.551Z,4.40
2023-03-25T12:38:50.675Z,3.00
2023-03-25T12:42:07.587Z,4.00
2023-03-25T12:45:26.437Z,3.75
2023-03-25T12:48:51.543Z,3.00
2023-03-25T12:52:02.095Z,7.00
2023-03-25T12:55:30.019Z,5.00
2023-03-25T12:58:59.992Z,4.60
2023-03-25T13:02:16.207Z,3.25
2023-03-25T13:05:27.739Z,3.00
2023-03-25T13:08:37.691Z,3.50
2023-03-25T13:11:44.555Z,4.00
2023-03-25T13:14:59.027Z,2.40
2023-03-25T13:18:07.419Z,2.00
2023-03-25T13:21:19.109Z,2.00
2023-03-25T13:24:30.349Z,2.40
2023-03-25T13:27:37.118Z,3.40
2023-03-25T13:30:44.904Z,3.40
2023-03-25T13:33:54.563Z,4.00
2023-03-25T13:37:10.007Z,2.00
2023-03-25T13:40:26.554Z,2.50
2023-03-25T13:43:36.554Z,4.00
2023-03-25T13:46:44.487Z,5.40
2023-03-25T13:49:53.015Z,3.00
2023-03-25T13:53:03.615Z,2.00
2023-03-25T13:56:45.617Z,3.20
2023-03-25T14:00:25.272Z,4.60
2023-03-25T14:04:00.520Z,3.20
2023-03-25T14:07:42.647Z,4.80
2023-03-25T14:10:55.264Z,3.00
2023-03-25T14:14:02.140Z,4.60
2023-03-25T14:17:07.962Z,4.00
2023-03-25T14:20:13.205Z,4.00
2023-03-25T14:23:21.161Z,4.00
2023-03-25T14:26:26.310Z,4.20
2023-03-25T14:29:38.953Z,2.00
2023-03-25T14:32:44.799Z,4.00
2023-03-25T14:35:52.487Z,4.40
2023-03-25T14:38:57.396Z,2.20
2023-03-25T14:42:03.034Z,4.40
2023-03-25T14:45:38.358Z,4.00
2023-03-25T14:48:46.273Z,3.00
2023-03-25T14:51:52.830Z,3.00
2023-03-25T14:54:56.773Z,4.20
2023-03-25T14:58:07.151Z,4.00
2023-03-25T15:01:13.003Z,4.00
2023-03-25T15:04:26.475Z,5.00
2023-03-25T15:07:43.364Z,3.00
2023-03-25T15:10:51.165Z,3.40
2023-03-25T15:14:03.329Z,5.00
2023-03-25T15:17:09.139Z,5.25
2023-03-25T15:20:36.109Z,4.00
2023-03-25T15:23:46.422Z,4.00
2023-03-25T15:26:50.846Z,3.00
2023-03-25T15:30:09.185Z,2.20
2023-03-25T15:33:26.682Z,4.00
2023-03-25T15:36:48.707Z,3.20
2023-03-25T15:40:09.919Z,3.00
2023-03-25T15:43:59.668Z,2.00
2023-03-25T15:47:23.950Z,2.00
2023-03-25T15:50:46.021Z,2.80
2023-03-25T15:54:04.863Z,2.40
2023-03-25T15:57:20.641Z,3.20
2023-03-25T16:00:28.566Z,2.00
2023-03-25T16:03:35.171Z,2.00
2023-03-25T16:06:44.019Z,3.00
2023-03-25T16:09:48.856Z,3.80
2023-03-25T16:12:52.052Z,4.00
2023-03-25T16:15:57.845Z,5.00
2023-03-25T16:19:04.179Z,3.00
2023-03-25T16:22:20.642Z,4.00
2023-03-25T16:25:28.647Z,3.40
2023-03-25T16:28:35.525Z,5.40
2023-03-25T16:31:42.962Z,8.00
2023-03-25T16:34:47.877Z,5.00
2023-03-25T16:37:52.373Z,5.75
2023-03-25T16:41:01.858Z,5.60
2023-03-25T16:44:05.261Z,4.75
2023-03-25T16:47:08.863Z,3.50
2023-03-25T16:50:19.919Z,6.60
2023-03-25T16:53:24.971Z,5.00
2023-03-25T16:56:30.944Z,5.60
2023-03-25T16:59:36.282Z,2.60
2023-03-25T17:02:42.025Z,8.00
2023-03-25T17:06:01.436Z,4.00
2023-03-25T17:09:05.637Z,8.00
2023-03-25T17:12:11.666Z,5.00
2023-03-25T17:15:18.751Z,6.00
2023-03-25T17:18:27.591Z,7.40
2023-03-25T17:21:34.439Z,6.00
2023-03-25T17:24:43.624Z,7.40
2023-03-25T17:27:49.260Z,10.40
2023-03-25T17:30:52.774Z,11.00
2023-03-25T17:34:01.558Z,6.00
2023-03-25T17:37:08.462Z,9.00
2023-03-25T17:40:22.594Z,9.00
2023-03-25T17:43:26.932Z,9.60
2023-03-25T17:46:32.073Z,10.00
2023-03-25T17:49:35.742Z,10.50
2023-03-25T17:52:40.550Z,9.00
2023-03-25T17:55:45.341Z,9.00
2023-03-25T17:58:48.811Z,8.00
2023-03-25T18:01:52.505Z,10.00
2023-03-25T18:04:55.794Z,8.60
2023-03-25T18:08:00.785Z,9.00
2023-03-25T18:11:04.128Z,9.00
2023-03-25T18:14:07.376Z,11.40
2023-03-25T18:17:12.751Z,8.40
2023-03-25T18:20:19.627Z,11.00
2023-03-25T18:23:24.828Z,9.60
2023-03-25T18:26:28.545Z,7.60
2023-03-25T18:29:32.348Z,9.00
2023-03-25T18:32:36.206Z,10.00
2023-03-25T18:35:39.488Z,10.00
2023-03-25T18:38:44.609Z,10.40
2023-03-25T18:41:47.763Z,7.60
2023-03-25T18:44:52.583Z,11.00
2023-03-25T18:47:56.789Z,11.75
2023-03-25T18:51:01.138Z,8.60
2023-03-25T18:54:05.997Z,8.20
2023-03-25T18:57:09.888Z,9.50
2023-03-25T19:00:19.855Z,11.60
2023-03-25T19:03:30.469Z,12.80
2023-03-25T19:06:34.173Z,13.00
2023-03-25T19:09:38.689Z,15.00
2023-03-25T19:12:41.966Z,10.20
2023-03-25T19:15:45.231Z,10.20
2023-03-25T19:18:48.682Z,14.75
2023-03-25T19:21:54.323Z,17.00
2023-03-25T19:24:59.110Z,17.60
2023-03-25T19:28:02.294Z,16.00
2023-03-25T19:31:06.032Z,18.00
2023-03-25T19:34:09.982Z,20.60
2023-03-25T19:37:13.898Z,19.00
2023-03-25T19:40:21.141Z,21.60
2023-03-25T19:43:24.927Z,18.25
2023-03-25T19:46:29.359Z,18.00
2023-03-25T19:49:39.727Z,19.60
2023-03-25T19:52:44.178Z,18.40
2023-03-25T19:55:48.843Z,22.50
2023-03-25T19:58:52.072Z,26.60
2023-03-25T20:01:55.593Z,22.40
2023-03-25T20:04:58.897Z,21.20
2023-03-25T20:08:02.129Z,23.00
2023-03-25T20:11:12.669Z,21.80
2023-03-25T20:14:16.732Z,19.75
2023-03-25T20:17:19.977Z,16.50
2023-03-25T20:20:24.930Z,18.25
2023-03-25T20:23:28.244Z,18.60
2023-03-25T20:26:32.887Z,19.00
2023-03-25T20:29:36.857Z,17.20
2023-03-25T20:32:42.194Z,16.40
2023-03-25T20:35:47.065Z,16.00
2023-03-25T20:38:57.111Z,16.00
2023-03-25T20:42:03.512Z,14.80
2023-03-25T20:45:07.831Z,16.20
2023-03-25T20:48:11.267Z,16.50
2023-03-25T20:51:14.598Z,20.60
2023-03-25T20:54:18.041Z,19.60
2023-03-25T20:57:22.616Z,17.60
2023-03-25T21:00:25.845Z,19.00
2023-03-25T21:03:29.510Z,16.00
2023-03-25T21:06:32.977Z,20.00
2023-03-25T21:09:37.060Z,17.00
2023-03-25T21:12:44.678Z,17.60
2023-03-25T21:15:48.216Z,16.00
2023-03-25T21:18:51.479Z,19.75
2023-03-25T21:21:55.643Z,16.60
2023-03-25T21:24:58.874Z,17.60
2023-03-25T21:28:04.881Z,17.00
2023-03-25T21:31:10.129Z,15.00
2023-03-25T21:34:16.061Z,16.00
2023-03-25T21:37:19.338Z,16.60
2023-03-25T21:40:23.085Z,17.60
2023-03-25T21:43:27.760Z,18.25
2023-03-25T21:46:33.922Z,16.40
2023-03-25T21:49:38.359Z,16.60
2023-03-25T21:52:47.090Z,15.00
2023-03-25T21:55:50.933Z,15.80
2023-03-25T21:58:55.597Z,15.75
2023-03-25T22:01:58.766Z,17.00
2023-03-25T22:05:02.002Z,13.40
2023-03-25T22:08:05.719Z,13.40
2023-03-25T22:11:11.290Z,15.00
2023-03-25T22:14:16.154Z,11.00
2023-03-25T22:17:19.537Z,10.40
2023-03-25T22:20:22.823Z,9.40
2023-03-25T22:23:26.214Z,10.00
2023-03-25T22:26:31.645Z,8.00
2023-03-25T22:29:36.642Z,6.00
2023-03-25T22:32:39.886Z,7.60
2023-03-25T22:35:43.310Z,7.40
2023-03-25T22:38:49.983Z,5.00
2023-03-25T22:41:53.699Z,4.00
2023-03-25T22:44:58.286Z,7.00
2023-03-25T22:48:01.584Z,5.00
2023-03-25T22:51:05.554Z,6.00
2023-03-25T22:54:09.908Z,5.60
2023-03-25T22:57:13.252Z,5.60
2023-03-25T23:00:26.404Z,5.00
2023-03-25T23:03:32.283Z,5.00
2023-03-25T23:06:36.467Z,5.00
2023-03-25T23:09:42.533Z,3.00
2023-03-25T23:12:46.212Z,4.00
2023-03-25T23:15:51.129Z,4.60
2023-03-25T23:18:55.118Z,5.60
2023-03-25T23:21:59.745Z,3.75
2023-03-25T23:25:04.669Z,4.00
2023-03-25T23:28:07.970Z,4.60
2023-03-25T23:31:14.396Z,4.60
2023-03-25T23:34:18.555Z,4.00
2023-03-25T23:37:21.801Z,4.60
2023-03-25T23:40:25.141Z,6.00
2023-03-25T23:43:28.387Z,4.00
2023-03-25T23:46:33.441Z,5.40
2023-03-25T23:49:38.373Z,6.40
2023-03-25T23:52:41.872Z,4.00
2023-03-25T23:55:46.525Z,5.00
2023-03-25T23:58:50.175Z,6.00
